createdAt,value
2019-06-27T00:01:34.634Z,5.13
2019-06-27T00:06:28.170Z,7.20
2019-06-27T00:11:21.614Z,5.53
2019-06-27T00:16:15.221Z,7.83
2019-06-27T00:21:10.623Z,5.43
2019-06-27T00:26:04.186Z,5.30
2019-06-27T00:30:57.774Z,7.93
2019-06-27T00:35:51.320Z,8.13
2019-06-27T00:40:44.842Z,7.83
2019-06-27T00:45:38.429Z,5.63
2019-06-27T00:50:31.885Z,6.60
2019-06-27T00:55:25.379Z,7.97
2019-06-27T01:00:19.556Z,8.47
2019-06-27T01:05:13.430Z,7.80
2019-06-27T01:10:10.192Z,4.90
2019-06-27T01:15:04.015Z,7.90
2019-06-27T01:19:57.795Z,7.13
2019-06-27T01:24:51.478Z,9.00
2019-06-27T01:29:44.960Z,6.37
2019-06-27T01:34:38.409Z,6.80
2019-06-27T01:39:31.819Z,5.27
2019-06-27T01:44:48.910Z,7.07
2019-06-27T01:49:42.497Z,7.97
2019-06-27T01:54:36.039Z,8.53
2019-06-27T01:59:29.561Z,8.63
2019-06-27T02:04:22.895Z,7.10
2019-06-27T02:09:16.364Z,7.87
2019-06-27T02:14:09.865Z,8.10
2019-06-27T02:19:03.439Z,7.33
2019-06-27T02:23:58.075Z,8.87
2019-06-27T02:28:51.690Z,5.83
2019-06-27T02:33:45.195Z,10.60
2019-06-27T02:38:38.782Z,6.40
2019-06-27T02:43:32.415Z,8.13
2019-06-27T02:48:25.891Z,8.43
2019-06-27T02:53:19.437Z,7.20
2019-06-27T02:58:30.047Z,6.07
2019-06-27T03:03:08.124Z,9.77
2019-06-27T03:08:01.586Z,8.13
2019-06-27T03:12:55.382Z,11.33
2019-06-27T03:17:49.006Z,9.53
2019-06-27T03:22:42.532Z,10.20
2019-06-27T03:27:36.046Z,4.83
2019-06-27T03:32:29.601Z,7.70
2019-06-27T03:37:23.067Z,5.63
2019-06-27T03:42:16.566Z,9.47
2019-06-27T03:47:09.923Z,7.43
2019-06-27T03:52:03.492Z,6.87
2019-06-27T03:56:57.897Z,10.07
2019-06-27T04:01:54.713Z,8.30
2019-06-27T04:06:48.285Z,10.13
2019-06-27T04:11:41.856Z,11.30
2019-06-27T04:16:37.712Z,10.70
2019-06-27T04:21:31.146Z,9.80
2019-06-27T04:26:25.617Z,11.27
2019-06-27T04:31:19.132Z,12.57
2019-06-27T04:36:12.594Z,10.80
2019-06-27T04:41:07.082Z,10.73
2019-06-27T04:46:00.702Z,12.47
2019-06-27T04:50:55.325Z,10.50
2019-06-27T04:55:48.789Z,11.20
2019-06-27T05:00:42.269Z,11.53
2019-06-27T05:05:35.678Z,11.50
2019-06-27T05:10:29.142Z,11.70
2019-06-27T05:15:22.739Z,14.27
2019-06-27T05:20:16.379Z,13.13
2019-06-27T05:25:09.886Z,12.97
2019-06-27T05:30:09.253Z,13.03
2019-06-27T05:34:59.097Z,18.50
2019-06-27T05:39:54.427Z,14.77
2019-06-27T05:44:47.873Z,15.33
2019-06-27T05:49:41.468Z,13.60
2019-06-27T05:54:34.883Z,15.63
2019-06-27T05:59:28.345Z,14.73
2019-06-27T06:04:24.171Z,16.50
2019-06-27T06:09:18.622Z,17.53
2019-06-27T06:14:12.243Z,14.03
2019-06-27T06:19:05.625Z,17.97
2019-06-27T06:23:59.120Z,14.60
2019-06-27T06:28:52.798Z,13.43
2019-06-27T06:33:46.316Z,11.97
2019-06-27T06:38:39.958Z,14.73
2019-06-27T06:43:33.835Z,12.73
2019-06-27T06:48:27.478Z,14.17
2019-06-27T06:53:21.224Z,16.40
2019-06-27T06:58:17.768Z,13.00
2019-06-27T07:03:11.285Z,11.50
2019-06-27T07:08:04.822Z,13.40
2019-06-27T07:12:58.653Z,14.97
2019-06-27T07:17:52.295Z,11.97
2019-06-27T07:22:46.129Z,14.57
2019-06-27T07:27:41.552Z,10.30
2019-06-27T07:32:35.343Z,11.97
2019-06-27T07:37:29.012Z,9.50
2019-06-27T07:42:22.792Z,12.27
2019-06-27T07:47:16.177Z,11.67
2019-06-27T07:52:10.588Z,14.07
2019-06-27T07:57:04.264Z,11.77
2019-06-27T08:01:58.271Z,12.23
2019-06-27T08:06:52.157Z,12.60
2019-06-27T08:11:46.240Z,12.93
2019-06-27T08:16:39.919Z,14.77
2019-06-27T08:21:33.918Z,13.60
2019-06-27T08:26:28.492Z,13.53
2019-06-27T08:31:22.284Z,13.23
2019-06-27T08:36:16.329Z,13.20
2019-06-27T08:41:13.719Z,12.27
2019-06-27T08:46:05.663Z,17.33
2019-06-27T08:51:00.408Z,13.33
2019-06-27T08:55:53.880Z,11.17
2019-06-27T09:00:47.085Z,11.10
2019-06-27T09:05:40.559Z,10.40
2019-06-27T09:10:34.086Z,13.23
2019-06-27T09:15:27.903Z,11.97
2019-06-27T09:20:23.703Z,8.77
2019-06-27T09:25:17.049Z,10.93
2019-06-27T09:30:11.777Z,9.67
2019-06-27T09:35:05.607Z,8.93
2019-06-27T09:39:59.004Z,9.90
2019-06-27T09:44:52.454Z,8.10
2019-06-27T09:49:46.020Z,8.47
2019-06-27T09:54:39.524Z,6.93
2019-06-27T09:59:32.887Z,5.33
2019-06-27T10:04:27.594Z,9.03
2019-06-27T10:09:21.123Z,5.13
2019-06-27T10:14:14.480Z,5.33
2019-06-27T10:19:13.243Z,5.03
2019-06-27T10:24:07.381Z,4.17
2019-06-27T10:29:01.318Z,8.57
2019-06-27T10:33:55.345Z,6.27
2019-06-27T10:38:49.273Z,7.77
2019-06-27T10:43:43.260Z,7.63
2019-06-27T10:48:37.239Z,6.83
2019-06-27T10:53:31.284Z,3.77
2019-06-27T10:58:24.688Z,4.20
2019-06-27T11:03:18.183Z,4.20
2019-06-27T11:08:11.769Z,7.20
2019-06-27T11:13:05.340Z,4.57
2019-06-27T11:17:58.618Z,5.80
2019-06-27T11:22:52.636Z,4.07
2019-06-27T11:27:46.281Z,4.03
2019-06-27T11:32:39.990Z,7.30
2019-06-27T11:37:33.727Z,8.47
2019-06-27T11:42:29.788Z,7.50
2019-06-27T11:47:22.369Z,7.97
2019-06-27T11:52:15.955Z,7.40
2019-06-27T11:57:09.442Z,6.87
2019-06-27T12:02:02.941Z,5.23
2019-06-27T12:06:57.097Z,6.60
2019-06-27T12:11:51.871Z,5.83
2019-06-27T12:16:45.223Z,7.40
2019-06-27T12:21:38.734Z,4.63
2019-06-27T12:26:33.227Z,5.33
2019-06-27T12:31:26.749Z,6.70
2019-06-27T12:36:20.223Z,5.90
2019-06-27T12:41:13.589Z,7.83
2019-06-27T12:46:06.881Z,7.03
2019-06-27T12:51:00.492Z,4.37
2019-06-27T12:55:54.076Z,8.20
2019-06-27T13:00:49.239Z,5.53
2019-06-27T13:05:43.057Z,5.53
2019-06-27T13:10:36.854Z,6.27
2019-06-27T13:15:30.159Z,5.93
2019-06-27T13:20:23.424Z,9.00
2019-06-27T13:25:16.980Z,9.40
2019-06-27T13:30:10.617Z,6.80
2019-06-27T13:35:04.450Z,5.50
2019-06-27T13:39:58.375Z,5.10
2019-06-27T13:44:52.055Z,4.97
2019-06-27T13:49:46.372Z,4.70
2019-06-27T13:54:41.531Z,4.57
2019-06-27T13:59:35.469Z,6.27
2019-06-27T14:04:28.943Z,6.23
2019-06-27T14:09:23.868Z,5.93
2019-06-27T14:14:17.497Z,8.47
2019-06-27T14:19:10.995Z,5.53
2019-06-27T14:24:04.658Z,7.30
2019-06-27T14:28:57.801Z,8.20
2019-06-27T14:33:51.343Z,6.27
2019-06-27T14:38:44.778Z,11.13
2019-06-27T14:43:38.532Z,7.10
2019-06-27T14:48:31.996Z,6.50
2019-06-27T14:53:25.359Z,8.17
2019-06-27T14:58:19.206Z,8.90
2019-06-27T15:03:14.367Z,6.47
2019-06-27T15:08:07.965Z,10.77
2019-06-27T15:13:01.136Z,7.40
2019-06-27T15:17:54.597Z,5.20
2019-06-27T15:22:48.446Z,7.23
2019-06-27T15:27:42.185Z,3.67
2019-06-27T15:32:35.755Z,6.13
2019-06-27T15:37:30.080Z,8.83
2019-06-27T15:42:25.116Z,10.67
2019-06-27T15:47:18.797Z,7.00
2019-06-27T15:52:12.301Z,4.30
2019-06-27T15:57:05.924Z,9.63
2019-06-27T16:01:59.663Z,7.47
2019-06-27T16:06:53.092Z,4.97
2019-06-27T16:11:46.695Z,7.90
2019-06-27T16:16:40.258Z,6.97
2019-06-27T16:21:33.753Z,7.50
2019-06-27T16:26:27.245Z,5.70
2019-06-27T16:31:20.738Z,7.03
2019-06-27T16:36:24.809Z,7.20
2019-06-27T16:41:10.339Z,6.40
2019-06-27T16:46:04.463Z,7.67
2019-06-27T16:50:58.100Z,8.73
2019-06-27T16:55:51.874Z,6.93
2019-06-27T17:00:45.395Z,6.03
2019-06-27T17:05:38.903Z,6.50
2019-06-27T17:10:32.445Z,5.20
2019-06-27T17:15:25.988Z,7.33
2019-06-27T17:20:19.292Z,6.03
2019-06-27T17:25:24.103Z,8.20
2019-06-27T17:30:25.146Z,6.23
2019-06-27T17:35:22.113Z,3.07
2019-06-27T17:40:26.280Z,8.07
2019-06-27T17:45:28.004Z,8.27
2019-06-27T17:50:30.058Z,7.20
2019-06-27T17:55:30.835Z,5.60
2019-06-27T18:00:31.642Z,7.30
2019-06-27T18:05:25.839Z,6.67
2019-06-27T18:10:19.829Z,4.73
2019-06-27T18:15:14.486Z,4.90
2019-06-27T18:20:08.143Z,4.80
2019-06-27T18:25:01.713Z,6.93
2019-06-27T18:29:57.141Z,6.87
2019-06-27T18:34:50.468Z,4.97
2019-06-27T18:39:43.887Z,9.17
2019-06-27T18:44:38.906Z,7.80
2019-06-27T18:49:32.268Z,6.87
2019-06-27T18:54:25.764Z,3.17
2019-06-27T18:59:19.565Z,4.53
2019-06-27T19:04:14.604Z,6.20
2019-06-27T19:09:08.234Z,7.20
2019-06-27T19:14:01.989Z,6.23
2019-06-27T19:18:58.604Z,4.67
2019-06-27T19:24:12.275Z,7.20
2019-06-27T19:29:06.005Z,5.07
2019-06-27T19:34:00.505Z,6.93
2019-06-27T19:38:53.951Z,6.90
2019-06-27T19:43:47.343Z,6.43
2019-06-27T19:48:41.065Z,11.87
2019-06-27T19:53:34.852Z,6.03
2019-06-27T19:58:28.336Z,8.23
2019-06-27T20:03:23.116Z,9.50
2019-06-27T20:08:19.557Z,8.33
2019-06-27T20:13:12.051Z,6.60
2019-06-27T20:18:05.615Z,6.47
2019-06-27T20:22:59.111Z,6.67
2019-06-27T20:27:52.712Z,7.93
2019-06-27T20:32:46.226Z,5.30
2019-06-27T20:37:40.011Z,4.93
2019-06-27T20:42:33.554Z,7.50
2019-06-27T20:47:26.929Z,5.83
2019-06-27T20:52:20.599Z,6.97
2019-06-27T20:57:14.310Z,6.27
2019-06-27T21:02:07.747Z,4.80
2019-06-27T21:07:01.133Z,6.03
2019-06-27T21:11:54.346Z,7.20
2019-06-27T21:16:47.680Z,11.37
2019-06-27T21:21:42.155Z,8.07
2019-06-27T21:26:35.861Z,8.30
2019-06-27T21:31:29.607Z,4.70
2019-06-27T21:36:23.161Z,6.20
2019-06-27T21:41:19.150Z,7.47
2019-06-27T21:46:13.148Z,5.93
2019-06-27T21:51:07.918Z,5.60
2019-06-27T21:56:01.444Z,7.10
2019-06-27T22:00:55.410Z,7.43
2019-06-27T22:05:49.046Z,4.73
2019-06-27T22:10:43.017Z,5.93
2019-06-27T22:15:36.624Z,3.60
2019-06-27T22:20:30.078Z,4.80
2019-06-27T22:25:39.185Z,3.97
2019-06-27T22:30:19.440Z,4.90
2019-06-27T22:35:13.209Z,4.93
2019-06-27T22:40:25.619Z,6.07
2019-06-27T22:45:37.147Z,3.13
2019-06-27T22:50:49.605Z,4.17
2019-06-27T22:55:45.181Z,3.40
2019-06-27T23:00:38.775Z,9.03
2019-06-27T23:05:32.075Z,3.50
2019-06-27T23:10:25.577Z,5.80
2019-06-27T23:15:19.114Z,5.23
2019-06-27T23:20:13.000Z,4.73
2019-06-27T23:25:08.249Z,3.93
2019-06-27T23:30:02.000Z,3.00
2019-06-27T23:34:55.486Z,4.93
2019-06-27T23:39:49.318Z,2.73
2019-06-27T23:44:42.969Z,4.37
2019-06-27T23:49:39.961Z,4.27
2019-06-27T23:54:33.626Z,7.40
2019-06-27T23:59:27.601Z,4.00
